Time;durP1;ratioP1;P1;durP2;ratioP2;P2;SDS_P1;SDS_P2;PMS_P1;PMS_P2;Temp;Humidity;BMP_temperature;BMP_pressure;BME280_temperature;BME280_humidity;BME280_pressure;Samples;Min_cycle;Max_cycle;Signal;HPM_P1;HPM_P2
2021/09/26 00:02:13;;;;;;;38.00;33.90;;;;;;;16.62;78.42;101220.95;1675888;85;21028;-84
2021/09/26 00:04:41;;;;;;;34.73;28.92;;;;;;;16.62;78.43;101225.73;1674527;83;21099;-84
2021/09/26 00:07:07;;;;;;;29.27;26.05;;;;;;;16.59;78.42;101224.52;1638537;87;21061;-84
2021/09/26 00:09:34;;;;;;;32.98;29.48;;;;;;;16.59;78.50;101223.66;1644915;85;20999;-84
2021/09/26 00:12:00;;;;;;;33.08;29.27;;;;;;;16.58;78.50;101225.42;1680850;85;21094;-84
2021/09/26 00:14:26;;;;;;;36.05;29.90;;;;;;;16.57;78.51;101221.55;1691760;84;21087;-84
2021/09/26 00:16:54;;;;;;;32.55;28.27;;;;;;;16.55;78.52;101223.76;1662218;86;21058;-84
2021/09/26 00:19:21;;;;;;;31.10;27.80;;;;;;;16.51;78.54;101223.45;1671230;85;21051;-84
2021/09/26 00:21:47;;;;;;;29.40;26.17;;;;;;;16.52;78.59;101226.91;1671512;85;21088;-84
2021/09/26 00:24:14;;;;;;;27.70;24.75;;;;;;;16.52;78.60;101226.46;1671469;85;21129;-84
2021/09/26 00:26:40;;;;;;;27.20;24.00;;;;;;;16.52;78.61;101224.30;1671504;85;21111;-84
2021/09/26 00:29:06;;;;;;;23.42;21.20;;;;;;;16.49;78.64;101227.86;1673154;84;20995;-84
2021/09/26 00:31:33;;;;;;;25.23;22.62;;;;;;;16.49;78.65;101223.95;1673799;85;21111;-84
2021/09/26 00:33:59;;;;;;;25.80;23.12;;;;;;;16.49;78.66;101226.55;1673225;84;20998;-84
2021/09/26 00:36:25;;;;;;;25.88;23.12;;;;;;;16.47;78.68;101223.14;1673238;85;21106;-84
2021/09/26 00:38:52;;;;;;;27.48;24.52;;;;;;;16.47;78.72;101227.50;1673155;85;21566;-84
2021/09/26 00:41:18;;;;;;;24.40;21.90;;;;;;;16.46;78.73;101217.96;1672661;83;21080;-84
2021/09/26 00:43:44;;;;;;;24.63;22.10;;;;;;;16.46;78.76;101220.13;1673713;85;21103;-84
2021/09/26 00:46:11;;;;;;;24.50;21.90;;;;;;;16.45;78.72;101224.94;1673616;85;21580;-84
2021/09/26 00:48:39;;;;;;;24.55;21.97;;;;;;;16.43;78.78;101220.67;1654762;85;21064;-84
2021/09/26 00:51:10;;;;;;;25.80;21.05;;;;;;;16.41;78.81;101220.71;1553401;85;10000499;-84
2021/09/26 00:53:34;;;;;;;22.73;20.40;;;;;;;16.41;78.82;101221.16;1648626;85;21039;-84
2021/09/26 00:56:07;;;;;;;26.57;19.73;;;;;;;16.39;78.82;101221.20;1673352;85;21055;-84
2021/09/26 00:58:34;;;;;;;26.17;21.45;;;;;;;16.38;78.84;101219.50;1674137;84;25251;-84
2021/09/26 01:01:00;;;;;;;;;;;;;;;16.36;78.88;101225.66;1665165;84;21063;-84
2021/09/26 01:03:27;;;;;;;24.20;20.45;;;;;;;16.36;79.12;101219.14;1664120;84;20230;-84
2021/09/26 01:06:30;;;;;;;27.05;22.22;;;;;;;16.35;78.94;101218.73;1673846;85;21172;-84
2021/09/26 01:09:21;;;;;;;25.30;21.68;;;;;;;16.34;78.97;101228.33;1663188;83;800576;-84
2021/09/26 01:12:17;;;;;;;26.87;21.68;;;;;;;16.33;78.99;101230.98;1657351;86;21608;-84
2021/09/26 01:14:54;;;;;;;20.80;18.60;;;;;;;16.33;79.01;101227.06;1723082;83;21131;-84
2021/09/26 01:17:41;;;;;;;19.32;17.40;;;;;;;16.31;79.03;101221.89;1725145;82;26770;-84
2021/09/26 01:20:17;;;;;;;19.37;17.57;;;;;;;16.31;79.04;101227.11;1715831;83;21104;-84
2021/09/26 01:23:13;;;;;;;21.23;18.95;;;;;;;16.31;79.05;101227.56;1670752;83;21119;-84
2021/09/26 01:26:15;;;;;;;20.92;18.30;;;;;;;16.29;79.07;101217.16;1696869;83;21163;-84
2021/09/26 01:29:11;;;;;;;19.87;17.87;;;;;;;16.29;79.12;101213.70;1696005;84;21097;-83
2021/09/26 01:31:43;;;;;;;22.82;19.20;;;;;;;16.27;79.15;101215.50;1693219;84;21049;-84
2021/09/26 01:34:29;;;;;;;21.00;18.90;;;;;;;16.21;79.04;101217.84;1695966;82;21111;-85
2021/09/26 01:37:22;;;;;;;21.02;18.55;;;;;;;16.18;79.15;101211.41;1695932;83;21148;-84
2021/09/26 01:40:11;;;;;;;20.52;18.30;;;;;;;16.18;79.20;101219.23;1695466;84;21117;-84
2021/09/26 01:42:42;;;;;;;19.30;17.12;;;;;;;16.17;79.26;101225.35;1696280;83;21077;-84
2021/09/26 01:45:22;;;;;;;21.95;18.10;;;;;;;16.16;79.28;101233.63;1696295;83;21104;-84
2021/09/26 01:48:16;;;;;;;18.00;16.30;;;;;;;16.17;79.32;101234.48;1672466;84;21049;-84
2021/09/26 01:50:47;;;;;;;18.20;16.25;;;;;;;16.18;79.32;101232.28;1696355;84;21060;-84
2021/09/26 01:53:15;;;;;;;22.65;18.42;;;;;;;16.17;79.38;101234.48;1684050;84;20974;-84
2021/09/26 01:55:43;;;;;;;18.57;16.62;;;;;;;16.18;79.40;101238.80;1698933;83;20918;-84
2021/09/26 01:58:10;;;;;;;18.15;16.05;;;;;;;16.19;79.40;101245.73;1698898;83;20926;-84
2021/09/26 02:00:39;;;;;;;19.37;17.32;;;;;;;16.19;79.39;101248.34;1699401;83;20946;-84
2021/09/26 02:03:06;;;;;;;19.57;17.48;;;;;;;16.18;79.41;101243.58;1698070;83;20954;-84
2021/09/26 02:05:33;;;;;;;19.42;17.15;;;;;;;16.18;79.44;101247.48;1698571;84;20886;-84
2021/09/26 02:08:00;;;;;;;18.70;16.87;;;;;;;16.19;79.47;101245.28;1678846;83;20962;-84
2021/09/26 02:10:28;;;;;;;21.00;18.27;;;;;;;16.19;79.51;101246.59;1737431;81;20906;-84
2021/09/26 02:12:56;;;;;;;20.32;17.25;;;;;;;16.20;79.52;101247.45;1757409;81;20860;-84
2021/09/26 02:15:27;;;;;;;18.87;16.97;;;;;;;16.21;79.51;101251.31;1757625;81;20954;-84
2021/09/26 02:17:55;;;;;;;;;;;;;;;16.21;79.52;101253.92;1759599;81;20903;-84
2021/09/26 02:20:22;;;;;;;19.02;16.62;;;;;;;16.20;79.70;101254.82;1757417;81;20133;-84
2021/09/26 02:22:50;;;;;;;24.40;18.25;;;;;;;16.20;79.55;101260.48;1757707;81;20937;-84
2021/09/26 02:25:19;;;;;;;21.17;18.87;;;;;;;16.20;79.61;101257.88;1757196;81;20931;-84
2021/09/26 02:27:47;;;;;;;27.07;21.02;;;;;;;16.20;79.63;101251.36;1763137;80;20958;-84
2021/09/26 02:30:15;;;;;;;20.52;17.80;;;;;;;16.20;79.67;101241.78;1729146;81;21097;-84
2021/09/26 02:32:42;;;;;;;18.23;16.30;;;;;;;16.21;79.66;101242.18;1632477;81;10000824;-84
2021/09/26 02:35:11;;;;;;;20.37;18.23;;;;;;;16.20;79.63;101239.16;1753937;81;21065;-84
2021/09/26 02:37:37;;;;;;;20.12;18.10;;;;;;;16.19;79.67;101241.82;1755139;81;21033;-84
2021/09/26 02:40:06;;;;;;;21.30;18.98;;;;;;;16.19;79.69;101243.13;1755328;81;21117;-84
2021/09/26 02:43:05;;;;;;;20.62;18.23;;;;;;;16.17;79.72;101244.92;1754665;81;21084;-84
2021/09/26 02:45:42;;;;;;;20.17;18.17;;;;;;;16.17;79.74;101248.84;1752639;81;21053;-84
2021/09/26 02:48:22;;;;;;;20.62;18.57;;;;;;;16.17;79.78;101242.31;1755421;81;21151;-84
2021/09/26 02:50:55;;;;;;;23.35;19.37;;;;;;;16.15;79.81;101237.14;1632483;80;10000756;-84
2021/09/26 02:53:22;;;;;;;21.40;19.23;;;;;;;16.16;79.86;101241.91;1753521;81;21069;-84
2021/09/26 02:55:50;;;;;;;21.95;19.40;;;;;;;16.15;79.85;101243.66;1755303;81;26632;-84
2021/09/26 02:58:22;;;;;;;25.30;20.02;;;;;;;16.15;79.89;101245.42;1754085;81;21085;-84
2021/09/26 03:00:49;;;;;;;23.38;20.17;;;;;;;16.15;79.91;101250.63;1756423;81;21045;-84
2021/09/26 03:03:26;;;;;;;20.15;17.90;;;;;;;16.16;79.93;101266.25;1757441;81;20864;-84
2021/09/26 03:05:54;;;;;;;20.90;17.35;;;;;;;16.15;79.90;101274.97;1728988;80;20899;-84
2021/09/26 03:08:21;;;;;;;19.90;18.00;;;;;;;16.14;79.93;101277.63;1757333;81;20935;-84
2021/09/26 03:10:52;;;;;;;23.40;18.00;;;;;;;16.12;79.92;101263.31;1757912;80;21819;-84
2021/09/26 03:13:19;;;;;;;20.02;17.90;;;;;;;16.11;79.97;101264.70;1761840;81;20927;-84
2021/09/26 03:15:45;;;;;;;19.67;17.57;;;;;;;16.11;80.02;101273.83;1755423;80;21557;-84
2021/09/26 03:18:12;;;;;;;19.12;17.12;;;;;;;16.13;80.02;101272.00;1758238;80;21433;-84
2021/09/26 03:20:38;;;;;;;19.65;17.62;;;;;;;16.13;80.01;101265.03;1758459;80;20954;-84
2021/09/26 03:23:06;;;;;;;18.90;16.95;;;;;;;16.11;80.00;101264.25;1763126;81;20861;-84
2021/09/26 03:25:33;;;;;;;18.12;16.32;;;;;;;16.09;80.05;101257.36;1762813;80;20883;-84
2021/09/26 03:27:59;;;;;;;19.65;17.75;;;;;;;16.10;80.06;101261.69;1758728;81;25218;-84
2021/09/26 03:30:25;;;;;;;21.37;17.37;;;;;;;16.10;80.09;101272.13;1752002;81;21454;-83
2021/09/26 03:32:52;;;;;;;18.75;17.05;;;;;;;16.08;80.11;101273.91;1757936;80;20937;-83
2021/09/26 03:35:18;;;;;;;20.68;17.92;;;;;;;16.07;80.12;101271.75;1758829;80;20888;-83
2021/09/26 03:37:45;;;;;;;19.50;17.57;;;;;;;16.08;80.11;101276.52;1760620;80;20906;-83
2021/09/26 03:40:14;;;;;;;21.45;17.40;;;;;;;16.05;80.15;101273.55;1761171;80;20878;-83
2021/09/26 03:42:41;;;;;;;19.82;17.73;;;;;;;16.04;80.15;101280.97;1757901;80;20933;-83
2021/09/26 03:45:09;;;;;;;17.65;15.95;;;;;;;16.02;80.15;101278.86;1762045;81;20883;-83
2021/09/26 03:47:43;;;;;;;19.10;17.00;;;;;;;16.00;80.12;101287.17;1753807;80;21538;-83
2021/09/26 03:50:10;;;;;;;19.55;17.40;;;;;;;15.98;80.19;101278.53;1763175;80;20910;-83
2021/09/26 03:52:37;;;;;;;18.60;16.77;;;;;;;15.98;80.25;101278.98;1764547;80;21388;-83
2021/09/26 03:55:15;;;;;;;22.13;18.52;;;;;;;15.97;80.24;101272.05;1763154;80;20943;-83
2021/09/26 03:57:42;;;;;;;19.45;17.42;;;;;;;15.96;80.25;101272.95;1762778;80;20922;-83
2021/09/26 04:00:14;;;;;;;23.83;17.67;;;;;;;15.95;80.25;101273.40;1756742;80;20866;-83
2021/09/26 04:02:40;;;;;;;20.57;18.35;;;;;;;15.94;80.26;101277.36;1753197;80;20926;-83
2021/09/26 04:05:07;;;;;;;19.35;17.23;;;;;;;15.92;80.32;101275.23;1762645;80;20900;-83
2021/09/26 04:07:34;;;;;;;20.50;18.25;;;;;;;15.92;80.33;101280.00;1762466;81;21435;-83
2021/09/26 04:10:00;;;;;;;19.48;17.42;;;;;;;15.90;80.33;101279.19;1759567;81;21378;-84
2021/09/26 04:12:27;;;;;;;19.52;17.62;;;;;;;15.90;80.36;101279.19;1752563;81;20923;-84
2021/09/26 04:14:53;;;;;;;22.27;18.77;;;;;;;15.89;80.39;101275.73;1750974;81;21422;-84
2021/09/26 04:17:19;;;;;;;20.17;17.90;;;;;;;15.88;80.39;101279.68;1752577;81;21423;-83
2021/09/26 04:19:46;;;;;;;19.50;17.45;;;;;;;15.87;80.42;101281.44;1750521;81;21107;-83
2021/09/26 04:22:19;;;;;;;19.50;17.40;;;;;;;15.86;80.43;101281.03;1752607;81;20869;-83
2021/09/26 04:24:45;;;;;;;20.08;17.87;;;;;;;15.85;80.42;101284.53;1752315;80;20908;-83
2021/09/26 04:27:12;;;;;;;20.15;17.92;;;;;;;15.85;80.46;101277.16;1752489;81;21318;-83
2021/09/26 04:29:38;;;;;;;20.25;18.10;;;;;;;15.83;80.52;101273.28;1752737;81;20907;-84
2021/09/26 04:32:05;;;;;;;20.10;17.73;;;;;;;15.83;80.51;101277.64;1752093;81;20919;-84
2021/09/26 04:34:31;;;;;;;18.98;17.02;;;;;;;15.84;80.49;101285.88;1702729;84;20903;-84
2021/09/26 04:36:58;;;;;;;21.65;18.50;;;;;;;15.78;80.43;101287.34;1673985;84;20907;-84
2021/09/26 04:39:24;;;;;;;19.32;17.30;;;;;;;15.78;80.54;101299.08;1702463;83;20931;-84
2021/09/26 04:41:50;;;;;;;20.72;17.82;;;;;;;15.77;80.59;101294.76;1671916;84;20930;-84
2021/09/26 04:44:17;;;;;;;19.95;17.45;;;;;;;15.77;80.58;101287.80;1704092;82;20955;-84
2021/09/26 04:46:43;;;;;;;20.23;17.73;;;;;;;15.75;80.55;101292.64;1678378;84;21297;-84
2021/09/26 04:49:10;;;;;;;17.37;15.65;;;;;;;15.74;80.62;101297.00;1695387;84;21460;-84
2021/09/26 04:51:36;;;;;;;17.40;15.38;;;;;;;15.75;80.64;101299.16;1692688;84;20951;-84
2021/09/26 04:54:06;;;;;;;20.57;17.85;;;;;;;15.75;80.62;101296.10;1703916;84;20871;-84
2021/09/26 04:56:32;;;;;;;20.37;16.00;;;;;;;15.73;80.66;101287.47;1669546;85;21428;-84
2021/09/26 04:58:58;;;;;;;19.75;17.48;;;;;;;15.72;80.63;101293.58;1703951;83;20919;-84
2021/09/26 05:01:25;;;;;;;20.17;16.97;;;;;;;15.73;80.70;101293.12;1701479;83;20902;-84
2021/09/26 05:03:51;;;;;;;21.77;18.25;;;;;;;15.74;80.73;101300.05;1676237;84;20911;-84
2021/09/26 05:06:17;;;;;;;20.77;17.17;;;;;;;15.74;80.74;101300.91;1669913;85;21429;-84
2021/09/26 05:08:43;;;;;;;20.62;18.17;;;;;;;15.74;80.75;101303.97;1665539;85;20956;-84
2021/09/26 05:11:10;;;;;;;18.77;16.37;;;;;;;15.75;80.76;101302.63;1755314;81;20918;-84
2021/09/26 05:13:36;;;;;;;22.10;19.15;;;;;;;15.76;80.73;101301.72;1758243;81;20942;-84
2021/09/26 05:16:03;;;;;;;22.42;18.95;;;;;;;15.76;80.73;101299.12;1757350;81;20910;-83
2021/09/26 05:18:29;;;;;;;20.23;18.20;;;;;;;15.75;80.74;101298.70;1757891;81;20909;-82
2021/09/26 05:20:56;;;;;;;21.40;18.23;;;;;;;15.76;80.78;101310.85;1757870;80;21471;-82
2021/09/26 05:23:22;;;;;;;20.05;17.95;;;;;;;15.77;80.78;101318.23;1757659;81;20938;-82
2021/09/26 05:25:49;;;;;;;20.77;18.25;;;;;;;15.77;80.81;101316.48;1757970;81;21510;-82
2021/09/26 05:28:16;;;;;;;23.02;18.12;;;;;;;15.77;80.83;101314.31;1757671;81;21459;-82
2021/09/26 05:30:44;;;;;;;20.55;18.37;;;;;;;15.77;80.88;101322.14;1757893;81;20855;-82
2021/09/26 05:33:10;;;;;;;20.17;17.60;;;;;;;15.80;80.94;101326.83;1757586;81;20891;-83
2021/09/26 05:35:36;;;;;;;19.15;17.15;;;;;;;15.83;80.93;101329.80;1758191;81;20942;-83
2021/09/26 05:38:03;;;;;;;19.00;16.65;;;;;;;15.85;80.96;101339.30;1757803;81;21369;-83
2021/09/26 05:40:29;;;;;;;21.20;16.62;;;;;;;15.88;80.97;101337.06;1758079;81;20912;-83
2021/09/26 05:42:56;;;;;;;19.85;17.75;;;;;;;15.91;80.98;101330.91;1758008;80;20927;-83
2021/09/26 05:45:22;;;;;;;20.20;18.32;;;;;;;15.94;81.01;101333.44;1758105;81;21564;-83
2021/09/26 05:47:48;;;;;;;19.40;17.52;;;;;;;15.97;81.01;101334.66;1757736;81;21423;-83
2021/09/26 05:50:15;;;;;;;21.40;19.35;;;;;;;16.00;81.03;101334.58;1758126;80;20903;-83
2021/09/26 05:52:41;;;;;;;20.95;18.77;;;;;;;16.04;81.05;101341.42;1757719;80;21455;-83
2021/09/26 05:55:09;;;;;;;23.35;20.95;;;;;;;16.06;81.06;101335.72;1757815;80;21474;-83
2021/09/26 05:57:35;;;;;;;21.77;19.55;;;;;;;16.09;81.06;101339.55;1757830;81;20907;-83
2021/09/26 06:00:04;;;;;;;23.62;19.73;;;;;;;16.12;81.11;101338.98;1758075;81;21490;-83
2021/09/26 06:02:30;;;;;;;21.65;18.65;;;;;;;16.16;81.12;101339.75;1757247;81;21803;-83
2021/09/26 06:05:10;;;;;;;20.92;18.50;;;;;;;16.19;81.09;101340.53;1756782;81;21506;-83
2021/09/26 06:07:37;;;;;;;20.82;18.62;;;;;;;16.21;81.10;101339.18;1746882;80;21435;-83
2021/09/26 06:10:06;;;;;;;21.45;19.15;;;;;;;16.25;81.18;101335.59;1753256;81;21248;-83
2021/09/26 06:12:33;;;;;;;21.10;18.55;;;;;;;16.29;81.17;101334.61;1752776;81;21117;-83
2021/09/26 06:14:59;;;;;;;23.90;19.60;;;;;;;16.33;81.21;101341.45;1755446;81;21501;-83
2021/09/26 06:17:27;;;;;;;22.13;19.90;;;;;;;16.39;81.25;101344.34;1747460;81;21565;-83
2021/09/26 06:19:53;;;;;;;21.12;19.05;;;;;;;16.44;81.23;101344.62;1748826;81;21660;-83
2021/09/26 06:22:20;;;;;;;23.12;20.80;;;;;;;16.48;81.23;101338.86;1748192;81;21377;-83
2021/09/26 06:24:48;;;;;;;20.40;18.23;;;;;;;16.52;81.24;101347.86;1751762;81;21648;-83
2021/09/26 06:27:14;;;;;;;21.85;19.45;;;;;;;16.59;81.25;101354.22;1753581;81;21045;-83
2021/09/26 06:29:40;;;;;;;21.65;18.67;;;;;;;16.63;81.25;101354.08;1751159;81;21605;-83
2021/09/26 06:32:07;;;;;;;21.82;19.62;;;;;;;16.69;81.27;101354.36;1755254;81;20981;-83
2021/09/26 06:34:33;;;;;;;;;;;;;;;16.73;81.25;101351.61;1754473;81;21025;-83
2021/09/26 06:37:00;;;;;;;20.57;18.50;;;;;;;16.77;81.42;101349.31;1754906;81;20516;-83
2021/09/26 06:39:26;;;;;;;21.87;19.63;;;;;;;16.82;81.31;101353.09;1750610;81;22177;-83
2021/09/26 06:41:53;;;;;;;22.80;19.23;;;;;;;16.85;81.30;101351.24;1749499;81;21808;-83
2021/09/26 06:44:19;;;;;;;21.80;19.57;;;;;;;16.91;81.25;101357.19;1755233;81;21065;-86
2021/09/26 06:46:45;;;;;;;21.55;19.55;;;;;;;16.94;81.29;101359.25;1748333;80;21066;-85
2021/09/26 06:49:12;;;;;;;21.90;19.63;;;;;;;16.99;81.37;101353.44;1748251;80;21054;-86
2021/09/26 06:51:38;;;;;;;23.02;19.73;;;;;;;17.07;81.36;101359.28;1751188;80;21356;-86
2021/09/26 06:54:05;;;;;;;23.15;19.92;;;;;;;17.13;81.35;101359.55;1734996;80;21044;-86
2021/09/26 06:56:31;;;;;;;23.90;19.73;;;;;;;17.19;81.31;101360.63;1752193;80;21081;-85
2021/09/26 06:58:58;;;;;;;20.35;18.35;;;;;;;17.26;81.33;101366.52;1751528;80;21558;-86
2021/09/26 07:01:24;;;;;;;21.35;19.17;;;;;;;17.32;81.35;101368.50;1752307;80;21104;-84
2021/09/26 07:03:50;;;;;;;28.02;20.20;;;;;;;17.42;81.37;101376.90;1749053;81;21610;-83
2021/09/26 07:06:17;;;;;;;21.65;19.62;;;;;;;17.48;81.32;101370.17;1754950;81;21038;-84
2021/09/26 07:08:43;;;;;;;21.10;18.90;;;;;;;17.53;81.27;101373.03;1755322;80;21046;-84
2021/09/26 07:11:10;;;;;;;19.60;17.70;;;;;;;17.60;81.35;101372.84;1720025;81;21100;-84
2021/09/26 07:13:37;;;;;;;20.62;18.23;;;;;;;17.66;81.30;101366.98;1689879;82;21037;-85
2021/09/26 07:16:04;;;;;;;21.07;19.02;;;;;;;17.73;81.31;101374.14;1689958;82;21070;-82
2021/09/26 07:18:31;;;;;;;19.27;17.40;;;;;;;17.77;81.25;101375.30;1696208;83;21045;-84
2021/09/26 07:20:58;;;;;;;19.82;17.80;;;;;;;17.82;81.26;101377.30;1695314;82;21128;-87
2021/09/26 07:23:25;;;;;;;19.85;17.95;;;;;;;17.89;81.27;101383.19;1695883;82;21038;-85
2021/09/26 07:25:51;;;;;;;21.23;18.92;;;;;;;17.94;81.29;101383.89;1686877;83;21318;-85
2021/09/26 07:28:23;;;;;;;21.42;19.42;;;;;;;18.01;81.25;101391.08;1696956;83;21057;-85
2021/09/26 07:30:50;;;;;;;21.12;19.02;;;;;;;18.05;81.21;101390.06;1703230;83;416647;-85
2021/09/26 07:33:16;;;;;;;22.67;19.12;;;;;;;18.11;81.23;101389.85;1692234;84;21013;-85
2021/09/26 07:35:45;;;;;;;23.00;20.70;;;;;;;18.15;81.24;101389.69;1696829;83;22149;-85
2021/09/26 07:38:11;;;;;;;22.30;20.15;;;;;;;18.22;81.23;101392.92;1696902;83;20957;-85
2021/09/26 07:40:37;;;;;;;;;;;;;;;18.28;81.21;101398.39;1700839;83;20962;-85
2021/09/26 07:43:04;;;;;;;21.87;19.67;;;;;;;18.34;81.22;101397.72;1700683;82;20242;-85
2021/09/26 07:45:30;;;;;;;22.82;19.98;;;;;;;18.40;81.23;101398.81;1698594;82;20930;-85
2021/09/26 07:47:56;;;;;;;21.30;19.37;;;;;;;18.46;81.13;101393.81;1698247;83;20970;-85
2021/09/26 07:50:26;;;;;;;22.35;20.12;;;;;;;18.50;81.12;101395.41;1698349;83;20926;-85
2021/09/26 07:52:53;;;;;;;21.85;19.67;;;;;;;18.58;81.16;101404.30;1698727;83;21415;-85
2021/09/26 07:55:19;;;;;;;22.87;20.27;;;;;;;18.65;81.12;101404.05;1698294;83;20954;-85
2021/09/26 07:57:46;;;;;;;23.18;20.62;;;;;;;18.71;81.10;101402.97;1698972;83;20894;-85
2021/09/26 08:00:14;;;;;;;23.77;19.27;;;;;;;18.76;81.07;101403.63;1691297;83;21632;-85
2021/09/26 08:02:42;;;;;;;21.30;19.23;;;;;;;18.83;81.11;101406.41;1690082;84;21081;-85
2021/09/26 08:05:10;;;;;;;23.77;19.77;;;;;;;18.93;81.12;101401.23;1694432;84;21001;-85
2021/09/26 08:07:36;;;;;;;21.17;18.48;;;;;;;19.04;81.14;101406.91;1695412;84;21058;-85
2021/09/26 08:10:10;;;;;;;20.75;17.57;;;;;;;19.15;81.07;101407.81;1681493;83;21049;-85
2021/09/26 08:12:36;;;;;;;19.05;17.25;;;;;;;19.28;81.05;101405.53;1742076;81;20971;-85
2021/09/26 08:15:05;;;;;;;20.80;18.90;;;;;;;19.41;80.79;101387.09;1754341;81;21077;-85
2021/09/26 08:17:32;;;;;;;18.32;16.67;;;;;;;19.41;80.79;101387.09;1742605;81;21448;-85
2021/09/26 08:19:59;;;;;;;19.05;17.12;;;;;;;19.62;80.83;101405.93;1757109;81;20899;-85
2021/09/26 08:22:27;;;;;;;18.75;16.67;;;;;;;19.72;80.85;101406.41;1757329;81;20918;-85
2021/09/26 08:24:53;;;;;;;17.42;15.83;;;;;;;19.83;80.90;101400.22;1757162;81;20899;-85
2021/09/26 08:27:20;;;;;;;18.48;16.57;;;;;;;19.93;80.73;101395.44;1757148;80;20938;-85
2021/09/26 08:29:46;;;;;;;17.55;15.48;;;;;;;20.02;80.69;101403.78;1755405;81;20887;-85
2021/09/26 08:32:13;;;;;;;15.72;14.43;;;;;;;20.13;80.67;101402.02;1756854;81;20926;-82
2021/09/26 08:34:39;;;;;;;16.32;14.65;;;;;;;20.20;80.56;101402.61;1756996;81;20883;-83
2021/09/26 08:37:06;;;;;;;16.25;14.83;;;;;;;20.34;80.66;101400.20;1757597;81;20851;-83
2021/09/26 08:39:34;;;;;;;15.60;14.23;;;;;;;20.51;80.55;101395.09;1759012;81;20944;-81
2021/09/26 08:42:00;;;;;;;14.55;12.98;;;;;;;20.63;80.50;101403.73;1757526;81;20942;-82
2021/09/26 08:44:29;;;;;;;15.05;12.90;;;;;;;20.75;80.43;101403.64;1757253;81;20918;-82
2021/09/26 08:46:57;;;;;;;14.43;13.08;;;;;;;20.88;80.44;101399.95;1757470;81;20879;-82
2021/09/26 08:49:24;;;;;;;14.20;13.00;;;;;;;21.01;80.34;101408.52;1757463;81;20852;-82
2021/09/26 08:51:52;;;;;;;14.68;13.20;;;;;;;21.06;80.16;101412.25;1756865;80;20934;-82
2021/09/26 08:54:19;;;;;;;15.32;13.32;;;;;;;21.13;80.18;101406.63;1757167;81;20902;-82
2021/09/26 08:56:46;;;;;;;14.15;12.80;;;;;;;21.23;80.10;101406.23;1757385;81;20827;-85
2021/09/26 08:59:14;;;;;;;13.40;12.07;;;;;;;21.28;79.90;101401.14;1757322;81;20934;-85
2021/09/26 09:01:41;;;;;;;13.05;11.75;;;;;;;21.33;79.96;101398.25;1757011;81;20922;-85
2021/09/26 09:04:07;;;;;;;13.43;12.13;;;;;;;21.41;79.92;101400.91;1752508;81;20914;-85
2021/09/26 09:06:41;;;;;;;12.05;10.82;;;;;;;21.46;79.74;101404.63;1755491;81;20930;-85
2021/09/26 09:09:15;;;;;;;11.70;10.55;;;;;;;21.50;79.73;101397.44;1757302;81;21330;-85
2021/09/26 09:11:41;;;;;;;10.50;9.53;;;;;;;21.51;79.57;101404.41;1673098;83;20954;-85
2021/09/26 09:14:08;;;;;;;10.32;9.28;;;;;;;21.53;79.54;101397.30;1753798;81;20927;-85
2021/09/26 09:16:34;;;;;;;13.13;11.20;;;;;;;21.57;79.53;101395.75;1757010;81;20865;-85
2021/09/26 09:19:02;;;;;;;18.15;12.80;;;;;;;21.56;79.22;101402.41;1757367;81;20923;-85
2021/09/26 09:21:36;;;;;;;13.30;12.00;;;;;;;21.53;79.27;101394.66;1756319;81;25206;-85
2021/09/26 09:24:25;;;;;;;12.85;10.58;;;;;;;21.54;79.32;101398.53;1755434;81;21049;-85
2021/09/26 09:26:53;;;;;;;12.05;10.85;;;;;;;21.60;79.34;101406.13;1754471;81;21097;-82
2021/09/26 09:29:24;;;;;;;11.68;10.70;;;;;;;21.66;79.21;101404.97;1755381;81;21044;-83
2021/09/26 09:31:55;;;;;;;11.25;10.20;;;;;;;21.71;79.15;101402.97;1756544;81;21530;-85
2021/09/26 09:34:37;;;;;;;11.45;10.35;;;;;;;21.75;79.01;101400.11;1755625;81;21036;-82
2021/09/26 09:37:26;;;;;;;10.72;9.73;;;;;;;21.75;78.85;101406.69;1755228;81;21624;-82
2021/09/26 09:40:16;;;;;;;9.30;8.50;;;;;;;21.79;78.80;101401.66;1755055;81;21030;-84
2021/09/26 09:42:52;;;;;;;9.98;9.10;;;;;;;21.83;78.73;101404.14;1756861;81;21402;-83
2021/09/26 09:45:26;;;;;;;9.25;8.53;;;;;;;21.88;78.64;101398.14;1749047;81;21119;-83
2021/09/26 09:48:24;;;;;;;10.35;8.50;;;;;;;21.94;78.52;101395.20;1751085;81;21070;-83
2021/09/26 09:51:06;;;;;;;9.20;8.43;;;;;;;21.96;78.43;101399.46;1754719;80;21121;-83
2021/09/26 09:53:45;;;;;;;9.05;8.23;;;;;;;21.98;78.21;101402.02;1747068;80;21083;-83
2021/09/26 09:56:25;;;;;;;9.80;7.28;;;;;;;21.95;78.11;101403.48;1754869;80;21030;-84
2021/09/26 09:58:58;;;;;;;8.70;8.00;;;;;;;21.90;78.02;101394.50;1749398;81;20934;-84
2021/09/26 10:01:34;;;;;;;8.53;7.72;;;;;;;21.88;78.03;101398.14;1756191;81;20974;-83
2021/09/26 10:04:04;;;;;;;9.75;8.83;;;;;;;21.90;78.01;101395.82;1757175;81;20918;-84
2021/09/26 10:06:44;;;;;;;9.93;9.13;;;;;;;21.91;77.91;101405.42;1757530;81;20871;-83
2021/09/26 10:09:25;;;;;;;9.98;8.98;;;;;;;21.89;77.85;101397.21;1756988;81;20943;-83
2021/09/26 10:12:02;;;;;;;9.50;8.60;;;;;;;21.87;77.76;101397.75;1755116;81;20938;-84
2021/09/26 10:14:31;;;;;;;10.05;8.10;;;;;;;21.82;77.61;101401.11;1731230;81;20907;-83
2021/09/26 10:17:03;;;;;;;9.90;8.20;;;;;;;21.75;77.55;101400.57;1752075;80;20901;-84
2021/09/26 10:19:31;;;;;;;8.75;8.05;;;;;;;21.66;77.43;101397.93;1752061;81;20916;-85
2021/09/26 10:22:00;;;;;;;7.50;6.90;;;;;;;21.59;77.37;101389.09;1751676;81;21451;-84
2021/09/26 10:24:34;;;;;;;7.45;6.75;;;;;;;21.52;77.31;101394.27;1746634;81;20926;-84
2021/09/26 10:27:07;;;;;;;8.08;6.17;;;;;;;21.44;77.28;101392.86;1745652;81;20903;-84
2021/09/26 10:29:42;;;;;;;6.35;5.70;;;;;;;21.39;77.14;101391.38;1752069;81;20926;-83
2021/09/26 10:32:11;;;;;;;7.80;5.28;;;;;;;21.34;77.07;101394.70;1752337;81;20891;-83
2021/09/26 10:34:39;;;;;;;5.40;4.90;;;;;;;21.28;77.00;101397.66;1736683;81;20938;-84
2021/09/26 10:37:12;;;;;;;5.05;4.65;;;;;;;21.23;76.91;101392.61;1752008;81;20895;-89
2021/09/26 10:39:39;;;;;;;5.22;4.28;;;;;;;21.20;76.84;101390.56;1750986;81;21030;-90
2021/09/26 10:42:18;;;;;;;4.83;4.47;;;;;;;21.17;76.74;101390.70;1717594;82;21062;-86
2021/09/26 10:44:53;;;;;;;5.37;4.70;;;;;;;21.15;76.71;101385.52;1749024;81;21105;-86
2021/09/26 10:47:29;;;;;;;5.10;4.62;;;;;;;21.12;76.60;101375.99;1749444;81;21055;-84
2021/09/26 10:50:18;;;;;;;4.87;4.58;;;;;;;21.12;76.51;101382.56;1748890;81;20985;-83
2021/09/26 10:52:44;;;;;;;5.17;4.00;;;;;;;21.13;76.42;101376.84;1745509;81;21046;-84
2021/09/26 10:55:27;;;;;;;4.83;4.42;;;;;;;21.13;76.33;101372.91;1750040;81;20927;-84
2021/09/26 10:58:12;;;;;;;6.10;3.83;;;;;;;21.13;76.28;101379.48;1746517;81;20895;-84
2021/09/26 11:00:55;;;;;;;4.20;3.90;;;;;;;21.15;76.25;101378.94;1742649;81;20910;-84
2021/09/26 11:03:34;;;;;;;4.50;4.10;;;;;;;21.18;76.15;101377.48;1746798;81;20905;-84
2021/09/26 11:06:24;;;;;;;7.95;4.12;;;;;;;21.21;76.04;101377.80;1747213;81;20899;-84
2021/09/26 11:09:02;;;;;;;5.50;4.08;;;;;;;21.23;76.00;101370.26;1735007;81;20931;-84
2021/09/26 11:11:40;;;;;;;4.60;4.15;;;;;;;21.30;75.87;101372.13;1747852;81;21061;-84
2021/09/26 11:14:08;;;;;;;4.72;4.25;;;;;;;21.39;75.86;101376.91;1743436;81;21094;-84
2021/09/26 11:16:57;;;;;;;6.28;4.90;;;;;;;21.48;75.83;101366.79;1742662;81;21085;-84
2021/09/26 11:19:28;;;;;;;5.17;4.62;;;;;;;21.63;75.78;101363.86;1749843;80;21034;-84
2021/09/26 11:22:03;;;;;;;4.92;3.77;;;;;;;21.77;75.56;101356.59;1749215;80;21111;-84
2021/09/26 11:24:35;;;;;;;4.30;4.00;;;;;;;;;;1749844;81;21053;-84
2021/09/26 11:27:20;;;;;;;4.47;3.60;;;;;;;22.04;75.43;101364.86;1749607;80;21027;-84
2021/09/26 11:29:52;;;;;;;3.42;2.75;;;;;;;22.15;75.25;101358.58;1749689;81;21034;-84